Time;durP1;ratioP1;P1;durP2;ratioP2;P2;SDS_P1;SDS_P2;PMS_P1;PMS_P2;Temp;Humidity;BMP_temperature;BMP_pressure;BME280_temperature;BME280_humidity;BME280_pressure;Samples;Min_cycle;Max_cycle;Signal;HPM_P1;HPM_P2
2022/10/17 00:00:10;;;;;;;6.27;4.50;;;11.60;99.90;;;;;;5005239;28;20483;-51
2022/10/17 00:02:37;;;;;;;5.90;4.27;;;11.60;99.90;;;;;;5008434;28;20491;-52
2022/10/17 00:05:04;;;;;;;5.57;4.10;;;11.70;99.90;;;;;;5002381;28;20884;-51
2022/10/17 00:07:31;;;;;;;7.10;4.60;;;11.70;99.90;;;;;;5007740;28;20460;-52
2022/10/17 00:09:57;;;;;;;16.33;4.40;;;11.70;99.90;;;;;;5010370;28;20529;-52
2022/10/17 00:12:24;;;;;;;4.70;3.70;;;11.70;99.90;;;;;;5004583;28;20471;-52
2022/10/17 00:14:50;;;;;;;8.13;4.60;;;11.70;99.90;;;;;;5007656;28;20495;-52
2022/10/17 00:17:18;;;;;;;7.73;4.60;;;11.70;99.90;;;;;;5008736;28;20986;-52
2022/10/17 00:19:45;;;;;;;7.20;4.20;;;11.70;99.90;;;;;;5017108;28;20483;-53
2022/10/17 00:22:12;;;;;;;9.00;4.33;;;11.70;99.90;;;;;;5005419;28;20464;-52
2022/10/17 00:24:39;;;;;;;6.50;4.10;;;11.60;99.90;;;;;;5007946;28;20475;-52
2022/10/17 00:27:05;;;;;;;6.40;4.40;;;11.70;99.90;;;;;;5015588;28;20456;-53
2022/10/17 00:29:32;;;;;;;4.40;4.00;;;11.70;99.90;;;;;;5005749;28;21000;-49
2022/10/17 00:31:59;;;;;;;4.70;4.30;;;11.70;99.90;;;;;;5004676;28;20483;-48
2022/10/17 00:34:29;;;;;;;6.80;4.50;;;11.70;99.90;;;;;;5005806;28;20480;-49
2022/10/17 00:36:56;;;;;;;7.83;4.23;;;11.70;99.90;;;;;;5006578;28;20463;-48
2022/10/17 00:39:22;;;;;;;4.90;4.40;;;11.80;99.90;;;;;;5002232;28;21004;-49
2022/10/17 00:41:49;;;;;;;8.83;4.30;;;11.80;99.90;;;;;;5006842;28;20984;-48
2022/10/17 00:44:53;;;;;;;4.90;4.10;;;11.80;99.90;;;;;;5006911;28;20549;-48
2022/10/17 00:47:22;;;;;;;7.97;4.70;;;11.80;99.90;;;;;;5005695;28;20463;-49
2022/10/17 00:49:50;;;;;;;5.77;4.20;;;11.80;99.90;;;;;;5005354;28;20464;-48
2022/10/17 00:52:21;;;;;;;6.53;4.30;;;11.80;99.90;;;;;;5003540;28;21443;-49
2022/10/17 00:54:51;;;;;;;9.63;4.47;;;11.80;99.90;;;;;;5009877;28;20905;-48
2022/10/17 00:57:18;;;;;;;6.77;3.90;;;11.80;99.90;;;;;;5013301;28;20879;-48
2022/10/17 00:59:48;;;;;;;4.20;3.80;;;11.80;99.90;;;;;;5014613;28;20896;-49
2022/10/17 01:02:18;;;;;;;8.13;4.33;;;11.80;99.90;;;;;;5012815;28;20888;-49
2022/10/17 01:04:48;;;;;;;7.27;4.60;;;11.80;99.90;;;;;;5001368;28;20515;-49
2022/10/17 01:07:16;;;;;;;7.10;4.47;;;11.80;99.90;;;;;;5011964;28;20531;-49
2022/10/17 01:09:45;;;;;;;6.13;4.47;;;11.80;99.90;;;;;;5012980;28;21023;-48
2022/10/17 01:12:20;;;;;;;6.43;4.70;;;11.90;99.90;;;;;;5009132;28;20486;-48
2022/10/17 01:14:59;;;;;;;7.43;4.27;;;11.90;99.90;;;;;;5018079;28;20537;-48
2022/10/17 01:17:34;;;;;;;10.40;4.27;;;11.90;99.90;;;;;;5007781;28;20499;-48
2022/10/17 01:20:29;;;;;;;8.20;4.33;;;11.90;99.90;;;;;;5010490;28;20506;-49
2022/10/17 01:23:14;;;;;;;11.70;4.10;;;11.90;99.90;;;;;;5010432;28;20510;-49
2022/10/17 01:25:51;;;;;;;8.23;4.20;;;12.00;99.90;;;;;;5011369;28;20526;-50
2022/10/17 01:28:34;;;;;;;7.63;4.70;;;12.00;99.90;;;;;;5014156;28;20454;-49
2022/10/17 01:31:09;;;;;;;6.70;4.63;;;12.00;99.90;;;;;;5008177;28;21035;-49
2022/10/17 01:33:47;;;;;;;6.27;4.10;;;12.00;99.90;;;;;;5008876;28;20482;-49
2022/10/17 01:36:25;;;;;;;11.43;4.50;;;12.00;99.90;;;;;;5008601;28;20515;-48
2022/10/17 01:38:58;;;;;;;4.47;3.97;;;11.90;99.90;;;;;;5011664;28;20499;-48
2022/10/17 01:41:31;;;;;;;3.93;3.63;;;12.00;99.90;;;;;;5010941;28;20506;-48
2022/10/17 01:44:03;;;;;;;3.83;3.33;;;12.00;99.90;;;;;;5014150;28;20487;-49
2022/10/17 01:46:35;;;;;;;3.80;3.50;;;12.00;99.90;;;;;;5004250;28;20572;-48
2022/10/17 01:49:04;;;;;;;3.77;3.43;;;12.00;99.90;;;;;;5011107;28;21020;-49
2022/10/17 01:51:36;;;;;;;11.60;3.80;;;12.00;99.90;;;;;;5012894;28;20883;-49
2022/10/17 01:54:09;;;;;;;6.13;3.17;;;12.00;99.90;;;;;;5007511;28;20501;-49
2022/10/17 01:56:37;;;;;;;5.63;3.30;;;12.00;99.90;;;;;;5016050;28;20553;-49
2022/10/17 01:59:09;;;;;;;3.80;3.27;;;12.00;99.90;;;;;;5011476;28;20492;-49
2022/10/17 02:01:39;;;;;;;3.50;3.10;;;12.00;99.90;;;;;;5007574;28;22404;-48
2022/10/17 02:04:08;;;;;;;3.47;3.27;;;12.00;99.90;;;;;;5011650;28;20467;-48
2022/10/17 02:06:35;;;;;;;3.83;3.53;;;12.00;99.90;;;;;;5013528;28;20879;-51
2022/10/17 02:09:19;;;;;;;8.70;3.70;;;12.00;99.90;;;;;;5012799;28;20468;-51
2022/10/17 02:11:55;;;;;;;6.97;3.50;;;12.00;99.90;;;;;;5011487;28;20470;-51
2022/10/17 02:14:32;;;;;;;5.37;3.30;;;12.00;99.90;;;;;;5006576;28;21149;-51
2022/10/17 02:17:09;;;;;;;3.60;3.30;;;12.00;99.90;;;;;;5011238;28;20491;-50
2022/10/17 02:19:46;;;;;;;8.73;3.03;;;12.00;99.90;;;;;;5004708;28;20506;-51
2022/10/17 02:22:20;;;;;;;5.07;3.10;;;12.00;99.90;;;;;;5007960;28;20535;-51
2022/10/17 02:24:52;;;;;;;3.13;2.93;;;12.10;99.90;;;;;;5009518;28;20537;-51
2022/10/17 02:27:29;;;;;;;2.60;2.40;;;12.10;99.90;;;;;;5010598;28;20483;-50
2022/10/17 02:30:00;;;;;;;2.93;2.73;;;12.10;99.90;;;;;;5011908;28;20459;-50
2022/10/17 02:32:35;;;;;;;3.53;2.77;;;12.20;99.90;;;;;;5012292;28;20558;-52
2022/10/17 02:35:05;;;;;;;4.80;3.10;;;12.30;99.90;;;;;;5005768;28;20501;-50
2022/10/17 02:37:32;;;;;;;2.40;2.30;;;12.40;99.90;;;;;;5009617;28;20981;-51
2022/10/17 02:40:01;;;;;;;2.00;1.90;;;12.40;99.90;;;;;;5009615;28;21016;-51
2022/10/17 02:42:29;;;;;;;2.50;2.30;;;12.60;99.90;;;;;;5008528;28;20463;-51
2022/10/17 02:44:59;;;;;;;3.03;2.00;;;12.70;99.90;;;;;;5014869;28;20522;-51
2022/10/17 02:47:31;;;;;;;3.43;1.63;;;12.80;99.90;;;;;;5008282;28;20468;-51
2022/10/17 02:49:58;;;;;;;2.40;2.30;;;13.00;99.90;;;;;;5010663;28;20491;-51
2022/10/17 02:52:33;;;;;;;2.20;2.10;;;13.10;99.90;;;;;;5008375;28;20517;-50
2022/10/17 02:55:06;;;;;;;2.40;2.20;;;13.20;99.90;;;;;;5015591;28;21046;-51
2022/10/17 02:57:38;;;;;;;2.43;2.17;;;13.40;23.40;;;;;;5007506;28;20495;-51
2022/10/17 03:00:08;;;;;;;2.00;1.80;;;13.50;28.30;;;;;;5018250;28;20526;-50
2022/10/17 03:02:45;;;;;;;3.43;2.13;;;13.60;48.30;;;;;;5008938;28;20495;-51
2022/10/17 03:05:13;;;;;;;2.47;2.27;;;13.70;51.90;;;;;;5011339;28;20933;-51
2022/10/17 03:07:40;;;;;;;3.20;2.20;;;13.80;50.80;;;;;;5007250;28;20483;-50
2022/10/17 03:10:07;;;;;;;3.10;2.40;;;13.80;50.50;;;;;;5013135;28;20491;-51
2022/10/17 03:12:33;;;;;;;3.47;2.00;;;13.80;49.70;;;;;;5006256;28;20491;-50
2022/10/17 03:15:00;;;;;;;2.40;2.20;;;13.80;47.40;;;;;;5012290;28;20519;-50
2022/10/17 03:17:26;;;;;;;2.53;2.33;;;13.80;45.80;;;;;;5002956;28;20502;-50
2022/10/17 03:19:54;;;;;;;2.27;2.17;;;13.80;43.50;;;;;;5008795;28;20542;-51
2022/10/17 03:22:21;;;;;;;4.50;2.50;;;13.80;32.50;;;;;;5005975;28;20499;-52
2022/10/17 03:24:47;;;;;;;2.20;2.10;;;13.80;24.50;;;;;;5008827;28;20518;-51
2022/10/17 03:27:14;;;;;;;2.07;1.97;;;13.80;25.00;;;;;;5006849;28;20533;-52
2022/10/17 03:29:40;;;;;;;2.30;2.20;;;13.80;20.00;;;;;;5013958;28;20511;-52
2022/10/17 03:32:07;;;;;;;3.00;2.47;;;13.80;89.00;;;;;;5006122;28;20522;-52
2022/10/17 03:34:34;;;;;;;6.10;2.70;;;13.80;96.80;;;;;;5010098;28;22135;-52
2022/10/17 03:37:02;;;;;;;2.50;2.30;;;13.80;99.90;;;;;;5008737;28;20503;-52
2022/10/17 03:39:28;;;;;;;2.37;2.27;;;13.80;99.90;;;;;;5013614;28;20486;-52
2022/10/17 03:41:55;;;;;;;2.27;2.17;;;13.80;99.90;;;;;;5010904;28;20467;-52
2022/10/17 03:44:21;;;;;;;2.50;2.40;;;13.80;99.90;;;;;;5004740;28;20546;-52
2022/10/17 03:46:48;;;;;;;2.50;2.27;;;13.80;99.90;;;;;;5004696;28;20833;-52
2022/10/17 03:49:15;;;;;;;2.30;2.20;;;13.80;99.90;;;;;;5009690;28;20849;-52
2022/10/17 03:51:41;;;;;;;4.43;2.53;;;13.70;99.90;;;;;;5016711;28;20483;-51
2022/10/17 03:54:09;;;;;;;3.03;2.73;;;13.70;99.90;;;;;;5009530;28;20500;-52
2022/10/17 03:56:36;;;;;;;3.93;2.37;;;13.70;99.90;;;;;;5012174;28;20499;-53
2022/10/17 03:59:02;;;;;;;2.87;2.67;;;13.70;99.90;;;;;;5010272;28;20491;-52
2022/10/17 04:01:29;;;;;;;2.97;2.70;;;13.70;99.90;;;;;;5005997;28;20622;-52
2022/10/17 04:03:56;;;;;;;2.70;2.50;;;13.70;99.90;;;;;;5010892;28;20467;-53
2022/10/17 04:06:23;;;;;;;4.43;2.63;;;13.70;99.90;;;;;;5009607;28;20502;-52
2022/10/17 04:08:50;;;;;;;2.70;2.50;;;13.70;99.90;;;;;;5014545;28;20463;-52
2022/10/17 04:11:21;;;;;;;3.20;2.90;;;13.70;99.90;;;;;;5005650;28;20495;-52
2022/10/17 04:13:51;;;;;;;3.87;3.50;;;13.70;99.90;;;;;;5006130;28;20459;-52
2022/10/17 04:16:18;;;;;;;3.03;2.83;;;13.70;99.90;;;;;;5003760;28;20537;-52
2022/10/17 04:18:45;;;;;;;4.63;3.30;;;13.70;99.90;;;;;;5011134;28;20499;-52
2022/10/17 04:21:12;;;;;;;3.27;3.07;;;13.70;99.90;;;;;;5010427;28;20491;-52
2022/10/17 04:23:39;;;;;;;3.37;3.07;;;13.70;99.90;;;;;;5006507;28;20969;-53
2022/10/17 04:26:06;;;;;;;2.77;2.60;;;13.60;99.90;;;;;;5010435;28;20538;-51
2022/10/17 04:28:35;;;;;;;3.03;2.93;;;13.60;99.90;;;;;;5009443;28;20491;-51
2022/10/17 04:31:03;;;;;;;3.63;3.30;;;13.60;99.90;;;;;;5008635;28;20491;-51
2022/10/17 04:33:30;;;;;;;2.67;2.53;;;13.60;99.90;;;;;;5006113;28;20495;-52
2022/10/17 04:35:58;;;;;;;5.40;3.57;;;13.60;99.90;;;;;;5015804;28;20516;-52
2022/10/17 04:38:25;;;;;;;3.27;3.07;;;13.60;99.90;;;;;;5005499;28;20487;-51
2022/10/17 04:40:51;;;;;;;3.30;3.10;;;13.60;99.90;;;;;;5004726;28;20535;-52
2022/10/17 04:43:18;;;;;;;3.53;3.23;;;13.60;99.90;;;;;;5011182;28;20464;-52
2022/10/17 04:45:46;;;;;;;5.00;3.50;;;13.50;99.90;;;;;;5009400;28;20483;-51
2022/10/17 04:48:12;;;;;;;4.10;3.73;;;13.50;99.90;;;;;;5015176;28;20516;-52
2022/10/17 04:50:39;;;;;;;3.70;3.40;;;13.50;99.90;;;;;;5018804;28;20490;-53
2022/10/17 04:53:05;;;;;;;4.07;3.70;;;13.60;99.90;;;;;;5014040;28;20902;-53
2022/10/17 04:55:37;;;;;;;4.57;4.17;;;13.60;99.90;;;;;;5011165;28;20960;-52
2022/10/17 04:58:03;;;;;;;5.43;3.90;;;13.60;99.90;;;;;;5016376;28;20455;-52
2022/10/17 05:00:30;;;;;;;3.97;3.50;;;13.70;99.90;;;;;;5010472;28;20482;-52
2022/10/17 05:02:58;;;;;;;4.53;4.13;;;13.60;99.90;;;;;;5012980;28;20468;-52
2022/10/17 05:05:24;;;;;;;5.90;4.33;;;13.70;99.60;;;;;;5005039;28;20511;-51
2022/10/17 05:07:51;;;;;;;3.83;3.53;;;13.70;96.90;;;;;;5012950;28;20981;-52
2022/10/17 05:10:17;;;;;;;4.13;3.80;;;13.80;94.80;;;;;;5011699;28;20962;-52
2022/10/17 05:12:46;;;;;;;4.17;3.77;;;13.80;91.70;;;;;;5014476;28;20463;-51
2022/10/17 05:15:12;;;;;;;4.00;3.70;;;13.80;90.20;;;;;;5012854;28;20978;-51
2022/10/17 05:17:39;;;;;;;3.90;3.70;;;13.80;88.20;;;;;;5011795;28;20502;-51
2022/10/17 05:20:09;;;;;;;7.70;3.17;;;13.80;89.50;;;;;;5020101;28;20490;-50
2022/10/17 05:22:35;;;;;;;11.67;3.80;;;13.70;88.80;;;;;;5012670;28;20547;-52
2022/10/17 05:25:02;;;;;;;6.83;3.77;;;13.80;87.30;;;;;;5007013;28;20518;-51
2022/10/17 05:27:28;;;;;;;4.13;3.83;;;13.80;83.50;;;;;;5007557;28;20534;-51
2022/10/17 05:29:55;;;;;;;4.33;4.00;;;13.80;84.00;;;;;;5009829;28;20496;-51
2022/10/17 05:32:21;;;;;;;5.73;3.80;;;13.70;81.40;;;;;;5012608;28;20491;-52
2022/10/17 05:34:48;;;;;;;7.60;4.23;;;13.70;81.50;;;;;;5010703;28;20522;-52
2022/10/17 05:37:16;;;;;;;3.73;3.53;;;13.70;81.10;;;;;;5009241;28;20495;-51
2022/10/17 05:39:42;;;;;;;4.27;3.50;;;13.70;78.90;;;;;;5008765;28;20518;-52
2022/10/17 05:42:09;;;;;;;5.30;4.30;;;13.70;74.50;;;;;;5007855;28;20566;-52
2022/10/17 05:44:38;;;;;;;5.27;4.83;;;13.70;72.20;;;;;;5012541;28;20516;-52
2022/10/17 05:47:04;;;;;;;5.90;4.77;;;13.70;71.40;;;;;;5011904;28;20464;-51
2022/10/17 05:49:31;;;;;;;7.70;4.50;;;13.70;68.90;;;;;;5013041;28;20495;-52
2022/10/17 05:51:57;;;;;;;5.93;4.53;;;13.70;68.70;;;;;;5008091;28;20491;-51
2022/10/17 05:54:26;;;;;;;4.80;4.40;;;13.70;66.20;;;;;;5009741;28;20502;-52
2022/10/17 05:56:53;;;;;;;7.37;4.30;;;13.70;64.30;;;;;;5011058;28;20801;-52
2022/10/17 05:59:20;;;;;;;5.30;4.90;;;13.70;62.10;;;;;;5008135;28;20491;-52
2022/10/17 06:01:47;;;;;;;5.17;4.77;;;13.70;61.20;;;;;;5008671;28;20526;-53
2022/10/17 06:04:13;;;;;;;4.80;4.37;;;13.70;59.10;;;;;;5008155;28;21311;-52
2022/10/17 06:06:40;;;;;;;4.73;4.37;;;13.70;58.70;;;;;;5005627;28;20498;-51
2022/10/17 06:09:08;;;;;;;4.90;4.47;;;13.70;58.90;;;;;;5013310;28;20487;-52
2022/10/17 06:11:36;;;;;;;4.93;4.53;;;13.70;60.00;;;;;;5012195;28;20460;-51
2022/10/17 06:14:02;;;;;;;7.73;5.00;;;13.70;59.30;;;;;;5004883;28;20517;-51
2022/10/17 06:16:29;;;;;;;10.70;5.03;;;13.70;58.70;;;;;;5010034;28;21206;-52
2022/10/17 06:18:56;;;;;;;5.47;4.60;;;13.70;58.60;;;;;;5007288;28;20515;-51
2022/10/17 06:21:24;;;;;;;5.27;4.57;;;13.70;58.60;;;;;;5009472;28;21292;-51
2022/10/17 06:23:52;;;;;;;5.60;5.00;;;13.70;58.40;;;;;;5009946;28;20507;-51
2022/10/17 06:26:19;;;;;;;5.90;4.80;;;13.70;58.40;;;;;;5005191;28;20490;-51
2022/10/17 06:28:47;;;;;;;6.00;5.50;;;13.70;57.50;;;;;;5003838;28;20474;-50
2022/10/17 06:31:16;;;;;;;7.27;5.23;;;13.70;58.60;;;;;;5004181;28;20454;-48
2022/10/17 06:33:43;;;;;;;5.20;4.60;;;13.80;58.30;;;;;;5008089;28;20498;-49
2022/10/17 06:36:13;;;;;;;5.90;5.30;;;13.80;58.90;;;;;;5010105;28;20514;-48
2022/10/17 06:38:41;;;;;;;4.80;4.40;;;13.80;58.90;;;;;;5003503;28;20455;-48
2022/10/17 06:41:12;;;;;;;5.00;4.70;;;13.80;59.00;;;;;;5006569;28;20571;-48
2022/10/17 06:43:40;;;;;;;5.43;4.87;;;13.80;60.00;;;;;;5003709;28;20471;-48
2022/10/17 06:46:07;;;;;;;6.47;5.00;;;13.90;61.90;;;;;;5006489;28;20515;-49
2022/10/17 06:48:34;;;;;;;8.93;5.00;;;13.90;63.60;;;;;;5007833;28;20460;-49
2022/10/17 06:51:03;;;;;;;7.30;5.17;;;13.90;63.40;;;;;;5006998;28;20496;-49
2022/10/17 06:53:31;;;;;;;5.00;4.20;;;13.90;64.60;;;;;;5005742;28;20460;-49
2022/10/17 06:56:01;;;;;;;7.50;4.50;;;14.00;65.50;;;;;;5006349;28;21116;-49
2022/10/17 06:58:29;;;;;;;4.80;4.30;;;14.00;67.50;;;;;;5006077;28;20470;-49
2022/10/17 07:00:59;;;;;;;7.33;4.70;;;14.10;70.20;;;;;;5011554;28;20998;-50
2022/10/17 07:03:28;;;;;;;8.80;5.10;;;14.10;71.20;;;;;;5006491;28;20460;-49
2022/10/17 07:05:55;;;;;;;5.77;5.27;;;14.10;73.50;;;;;;5010820;28;20916;-48
2022/10/17 07:08:22;;;;;;;7.07;5.10;;;14.20;74.80;;;;;;5008431;28;20984;-49
2022/10/17 07:10:49;;;;;;;7.20;5.20;;;14.20;75.10;;;;;;5006469;28;20518;-49
2022/10/17 07:13:16;;;;;;;12.90;5.17;;;14.30;76.40;;;;;;5007582;28;20492;-49
2022/10/17 07:15:42;;;;;;;6.17;4.90;;;14.40;77.70;;;;;;5003149;28;21107;-48
2022/10/17 07:18:09;;;;;;;5.90;4.47;;;14.50;80.00;;;;;;5002400;28;20498;-49
2022/10/17 07:20:37;;;;;;;7.33;4.80;;;14.70;82.50;;;;;;5004350;28;20492;-49
2022/10/17 07:23:04;;;;;;;4.83;4.43;;;14.70;83.70;;;;;;5000380;28;20547;-49
2022/10/17 07:25:31;;;;;;;10.73;5.40;;;14.80;87.00;;;;;;5008388;28;20518;-48
2022/10/17 07:27:57;;;;;;;5.83;3.60;;;14.90;90.20;;;;;;5004211;28;20471;-48
2022/10/17 07:30:24;;;;;;;5.90;4.20;;;15.00;99.90;;;;;;5001559;28;20488;-48
2022/10/17 07:32:53;;;;;;;6.37;4.20;;;15.10;99.90;;;;;;5006681;28;20487;-48
2022/10/17 07:35:20;;;;;;;5.77;4.83;;;15.20;99.90;;;;;;5003987;28;20515;-48
2022/10/17 07:37:48;;;;;;;4.40;4.00;;;15.30;99.90;;;;;;5005437;28;20462;-48
2022/10/17 07:40:15;;;;;;;4.10;3.60;;;15.40;99.90;;;;;;5001391;28;20541;-49
2022/10/17 07:42:41;;;;;;;7.10;3.87;;;15.40;99.90;;;;;;5001600;28;21076;-49
2022/10/17 07:45:09;;;;;;;3.23;3.03;;;15.60;99.90;;;;;;5006236;28;21005;-48
2022/10/17 07:47:35;;;;;;;6.30;3.93;;;15.80;99.90;;;;;;5009253;28;20491;-48
2022/10/17 07:50:02;;;;;;;3.83;3.33;;;16.10;99.90;;;;;;5006895;28;20953;-48
2022/10/17 07:52:28;;;;;;;4.20;3.67;;;17.00;99.90;;;;;;5002713;28;20494;-48
2022/10/17 07:54:56;;;;;;;4.23;3.83;;;17.80;51.20;;;;;;5005467;28;20522;-48
2022/10/17 07:57:23;;;;;;;4.80;3.13;;;18.30;99.90;;;;;;5005834;28;20460;-48
2022/10/17 07:59:50;;;;;;;4.00;3.70;;;18.40;99.90;;;;;;5004282;28;20492;-48
2022/10/17 08:02:22;;;;;;;5.40;3.20;;;18.50;99.90;;;;;;5008863;28;20495;-48
2022/10/17 08:04:48;;;;;;;4.50;3.40;;;18.20;99.90;;;;;;5014045;28;20491;-49
2022/10/17 08:07:15;;;;;;;5.20;2.83;;;18.00;99.90;;;;;;5007202;28;20484;-48
2022/10/17 08:09:42;;;;;;;5.43;3.20;;;17.70;99.90;;;;;;5004701;28;20472;-49
2022/10/17 08:12:10;;;;;;;4.97;3.53;;;17.60;99.90;;;;;;5008831;28;20450;-50
2022/10/17 08:14:38;;;;;;;3.33;2.70;;;17.50;99.90;;;;;;5011724;28;20527;-48
2022/10/17 08:17:04;;;;;;;5.00;3.07;;;17.50;99.90;;;;;;5006242;28;20542;-49
2022/10/17 08:19:31;;;;;;;4.60;3.00;;;17.60;99.90;;;;;;5009133;28;20895;-49
2022/10/17 08:21:58;;;;;;;4.53;2.70;;;17.60;99.90;;;;;;5009564;28;20515;-48
2022/10/17 08:24:25;;;;;;;3.17;2.93;;;17.60;99.90;;;;;;5007801;28;20483;-49
2022/10/17 08:26:53;;;;;;;6.80;2.50;;;17.70;99.90;;;;;;5007157;28;21392;-48
2022/10/17 08:29:21;;;;;;;5.60;2.90;;;17.80;99.90;;;;;;5009852;28;20949;-48
2022/10/17 08:31:47;;;;;;;4.90;2.80;;;17.90;99.90;;;;;;5007283;28;21042;-49
2022/10/17 08:34:14;;;;;;;8.17;3.10;;;17.90;99.90;;;;;;5008245;28;20459;-49
2022/10/17 08:36:41;;;;;;;6.97;2.73;;;18.10;99.90;;;;;;5010235;28;20471;-50
2022/10/17 08:39:08;;;;;;;4.17;3.00;;;18.30;99.90;;;;;;5007790;28;20484;-49
2022/10/17 08:41:46;;;;;;;3.40;3.00;;;18.60;99.90;;;;;;5007973;28;20494;-49
2022/10/17 08:44:26;;;;;;;2.50;2.33;;;18.70;99.90;;;;;;5008656;28;20537;-48
2022/10/17 08:46:57;;;;;;;6.00;3.30;;;18.80;99.90;;;;;;5007881;28;20512;-49
2022/10/17 08:49:34;;;;;;;3.13;2.53;;;19.10;99.90;;;;;;5008653;28;20891;-49
2022/10/17 08:52:11;;;;;;;4.43;2.70;;;19.80;99.90;;;;;;5005656;28;20464;-49
2022/10/17 08:54:41;;;;;;;2.47;2.33;;;19.80;99.90;;;;;;5008813;28;21035;-50
2022/10/17 08:57:12;;;;;;;4.93;3.00;;;19.90;99.90;;;;;;5007030;28;20464;-48
2022/10/17 08:59:41;;;;;;;2.60;2.40;;;19.80;99.90;;;;;;5007903;28;20474;-47
2022/10/17 09:02:21;;;;;;;4.50;3.20;;;20.10;99.90;;;;;;5000532;28;20607;-50
2022/10/17 09:05:07;;;;;;;4.60;2.33;;;20.30;99.90;;;;;;5001106;28;20567;-50
2022/10/17 09:07:41;;;;;;;2.47;2.37;;;20.80;21.50;;;;;;5008737;28;20495;-49
2022/10/17 09:10:16;;;;;;;3.83;2.40;;;20.60;20.60;;;;;;5009186;28;20498;-49
2022/10/17 09:12:50;;;;;;;6.00;4.93;;;20.80;94.70;;;;;;5004107;28;20462;-50
2022/10/17 09:15:36;;;;;;;6.63;2.70;;;21.10;34.30;;;;;;5005362;28;20916;-49
2022/10/17 09:18:11;;;;;;;2.30;2.10;;;20.80;36.70;;;;;;5006935;28;20499;-50
2022/10/17 09:20:44;;;;;;;3.37;2.63;;;20.90;32.90;;;;;;5006785;28;20495;-50
2022/10/17 09:23:15;;;;;;;3.37;2.47;;;21.10;43.90;;;;;;5006752;28;20511;-49
2022/10/17 09:25:45;;;;;;;2.17;2.07;;;21.30;48.70;;;;;;4999246;28;20511;-49
2022/10/17 09:28:17;;;;;;;5.03;2.43;;;21.20;42.30;;;;;;5001876;28;20487;-50
2022/10/17 09:30:47;;;;;;;21.90;3.00;;;21.10;53.00;;;;;;5004709;28;20511;-49
2022/10/17 09:33:15;;;;;;;3.37;2.03;;;21.50;53.80;;;;;;5010955;28;20463;-50
2022/10/17 09:35:43;;;;;;;8.37;2.60;;;21.40;54.40;;;;;;5000840;28;21010;-49
2022/10/17 09:38:16;;;;;;;2.90;2.70;;;22.10;63.10;;;;;;5005188;28;20494;-50
2022/10/17 09:40:43;;;;;;;3.00;2.70;;;22.40;78.50;;;;;;5006918;28;20495;-48
2022/10/17 09:43:13;;;;;;;3.90;2.37;;;22.80;81.90;;;;;;5007681;28;20511;-50
2022/10/17 09:45:45;;;;;;;10.13;2.57;;;22.40;85.30;;;;;;5006940;28;20526;-50
2022/10/17 09:48:22;;;;;;;4.30;2.10;;;22.80;97.80;;;;;;5012387;28;20488;-49
2022/10/17 09:50:49;;;;;;;2.57;2.03;;;23.80;99.90;;;;;;5010042;28;20459;-49
2022/10/17 09:53:22;;;;;;;3.03;2.70;;;23.60;99.90;;;;;;5008231;28;20491;-49
2022/10/17 09:55:51;;;;;;;3.27;2.37;;;23.70;99.90;;;;;;5007037;28;20476;-49
2022/10/17 09:58:20;;;;;;;2.60;2.10;;;23.90;99.90;;;;;;5009083;28;20495;-48
2022/10/17 10:00:47;;;;;;;2.73;1.93;;;23.20;99.90;;;;;;5010351;28;20834;-49
2022/10/17 10:03:18;;;;;;;5.00;2.33;;;22.80;99.90;;;;;;5005855;28;20506;-49
2022/10/17 10:05:59;;;;;;;4.10;2.27;;;22.60;99.90;;;;;;5008563;28;20573;-50
2022/10/17 10:08:29;;;;;;;2.30;2.07;;;22.20;99.90;;;;;;5005561;28;20489;-53
2022/10/17 10:11:02;;;;;;;2.93;2.07;;;22.10;96.90;;;;;;5007926;28;20475;-50
2022/10/17 10:13:28;;;;;;;5.23;2.20;;;21.90;93.60;;;;;;5004847;28;20462;-49
2022/10/17 10:16:14;;;;;;;2.70;2.50;;;21.90;91.20;;;;;;5003805;28;20516;-49
2022/10/17 10:18:43;;;;;;;6.07;2.50;;;21.70;87.10;;;;;;4999429;28;20499;-49
2022/10/17 10:21:11;;;;;;;3.53;2.10;;;21.60;84.30;;;;;;5006077;28;20502;-49
2022/10/17 10:23:39;;;;;;;3.10;2.90;;;21.60;79.40;;;;;;5004520;28;20511;-49
2022/10/17 10:26:20;;;;;;;2.53;2.30;;;21.60;76.90;;;;;;5008133;28;20542;-49
2022/10/17 10:28:56;;;;;;;4.83;2.30;;;21.60;72.80;;;;;;5006184;28;20467;-49
2022/10/17 10:31:30;;;;;;;3.00;2.33;;;21.60;68.50;;;;;;5006325;28;22825;-49
2022/10/17 10:34:01;;;;;;;5.83;2.70;;;21.60;74.90;;;;;;5005828;28;20533;-49
2022/10/17 10:36:43;;;;;;;5.50;2.67;;;21.50;71.70;;;;;;5007320;28;21152;-49
2022/10/17 10:39:24;;;;;;;3.17;2.97;;;21.60;70.80;;;;;;5004931;28;20485;-49
2022/10/17 10:41:51;;;;;;;5.00;3.00;;;21.60;71.50;;;;;;5005783;28;20484;-50
2022/10/17 10:44:23;;;;;;;6.63;2.50;;;21.70;76.50;;;;;;5004072;28;20994;-49
2022/10/17 10:47:06;;;;;;;22.97;5.37;;;21.70;76.00;;;;;;5006169;28;20459;-49
2022/10/17 10:49:34;;;;;;;11.23;2.20;;;21.70;76.50;;;;;;4997740;28;20543;-49
2022/10/17 10:52:03;;;;;;;4.07;2.10;;;21.60;75.00;;;;;;5003373;28;20599;-49
2022/10/17 10:54:35;;;;;;;2.50;2.40;;;21.60;77.80;;;;;;5003614;28;20512;-49
2022/10/17 10:57:06;;;;;;;2.70;2.60;;;21.70;75.30;;;;;;5002748;28;20547;-49
2022/10/17 10:59:37;;;;;;;4.17;2.83;;;21.70;79.50;;;;;;5005207;28;20471;-49
2022/10/17 11:02:11;;;;;;;7.30;2.63;;;21.70;80.00;;;;;;4997548;28;20570;-49
2022/10/17 11:04:44;;;;;;;3.70;2.63;;;22.00;85.70;;;;;;4998235;28;20526;-49
2022/10/17 11:07:16;;;;;;;2.70;2.50;;;22.10;82.40;;;;;;4993113;28;20487;-49
2022/10/17 11:09:50;;;;;;;4.30;2.30;;;22.10;85.90;;;;;;5003277;28;20958;-50
2022/10/17 11:12:20;;;;;;;2.10;2.00;;;22.10;86.40;;;;;;5003710;28;20494;-49
2022/10/17 11:14:51;;;;;;;2.70;2.23;;;22.20;87.20;;;;;;5006062;28;20550;-49
2022/10/17 11:17:29;;;;;;;2.93;2.70;;;22.20;87.10;;;;;;5006859;28;20509;-48
2022/10/17 11:20:15;;;;;;;3.27;2.10;;;22.30;85.60;;;;;;5000358;28;20448;-49
2022/10/17 11:22:46;;;;;;;3.00;2.73;;;22.30;87.70;;;;;;4997629;28;20565;-50
2022/10/17 11:25:30;;;;;;;5.77;2.80;;;22.40;91.10;;;;;;5009924;28;20476;-50
2022/10/17 11:27:56;;;;;;;3.80;2.37;;;22.40;92.50;;;;;;5010286;28;20495;-49
2022/10/17 11:30:26;;;;;;;4.83;2.77;;;22.50;93.00;;;;;;5009651;28;20549;-49
2022/10/17 11:32:56;;;;;;;7.70;2.60;;;22.50;92.10;;;;;;5005368;28;20491;-49
2022/10/17 11:35:27;;;;;;;4.70;2.97;;;22.60;91.30;;;;;;5012922;28;20496;-50
2022/10/17 11:38:01;;;;;;;3.30;2.33;;;22.70;91.50;;;;;;5010250;28;20503;-49
2022/10/17 11:40:33;;;;;;;3.17;2.47;;;22.80;94.10;;;;;;5005068;28;20451;-49
2022/10/17 11:43:02;;;;;;;2.90;2.27;;;22.80;98.50;;;;;;5010026;28;20896;-50
2022/10/17 11:45:34;;;;;;;8.97;2.67;;;22.80;99.90;;;;;;5008872;28;20566;-49
2022/10/17 11:48:06;;;;;;;5.37;2.77;;;22.70;99.90;;;;;;5006779;28;20993;-49
2022/10/17 11:50:35;;;;;;;3.83;2.33;;;22.80;99.90;;;;;;5008646;28;20872;-50
2022/10/17 11:53:09;;;;;;;2.20;2.10;;;22.80;99.90;;;;;;5005902;28;20530;-51
2022/10/17 11:55:37;;;;;;;2.57;2.20;;;22.80;99.90;;;;;;5003111;28;20896;-50
2022/10/17 11:58:18;;;;;;;3.07;2.37;;;22.90;99.90;;;;;;5006984;28;20455;-50
2022/10/17 12:00:59;;;;;;;6.60;3.10;;;22.90;99.90;;;;;;5004033;28;20494;-49
2022/10/17 12:03:46;;;;;;;3.73;2.17;;;23.00;99.90;;;;;;5006678;28;20538;-50
2022/10/17 12:06:21;;;;;;;3.07;2.20;;;23.10;99.90;;;;;;5004689;28;20529;-48
2022/10/17 12:08:55;;;;;;;1.90;1.80;;;23.20;99.90;;;;;;5004920;28;20502;-48
2022/10/17 12:11:45;;;;;;;3.00;2.10;;;23.30;99.90;;;;;;5004494;28;20492;-49
2022/10/17 12:14:34;;;;;;;4.10;2.37;;;23.30;99.90;;;;;;5002887;28;20487;-49
2022/10/17 12:17:02;;;;;;;2.80;1.93;;;23.50;99.90;;;;;;5007355;28;20550;-50
2022/10/17 12:19:33;;;;;;;6.67;2.47;;;23.70;99.90;;;;;;5005727;28;20487;-49
2022/10/17 12:22:21;;;;;;;3.60;2.10;;;23.70;99.90;;;;;;5004475;28;20956;-49
2022/10/17 12:24:57;;;;;;;14.07;2.50;;;23.80;99.90;;;;;;5006596;28;20491;-50
2022/10/17 12:27:37;;;;;;;2.60;2.30;;;23.90;99.90;;;;;;5004967;28;20961;-49
2022/10/17 12:30:14;;;;;;;5.17;2.20;;;24.00;99.90;;;;;;5007094;28;20506;-49
2022/10/17 12:32:54;;;;;;;9.00;2.60;;;24.10;99.90;;;;;;5003541;28;20957;-50
2022/10/17 12:35:23;;;;;;;4.83;2.20;;;24.00;99.90;;;;;;5001413;28;20985;-50
2022/10/17 12:38:25;;;;;;;3.77;2.00;;;23.90;99.90;;;;;;5002456;28;22340;-49
2022/10/17 12:41:03;;;;;;;4.93;2.23;;;24.00;99.90;;;;;;5006346;28;20459;-48
2022/10/17 12:43:42;;;;;;;7.63;2.90;;;24.10;99.90;;;;;;5002948;28;21103;-48
2022/10/17 12:46:10;;;;;;;2.67;2.43;;;24.10;99.90;;;;;;5004018;28;20498;-48
2022/10/17 12:48:59;;;;;;;2.13;1.93;;;24.20;99.90;;;;;;5005092;28;20986;-48
2022/10/17 12:51:26;;;;;;;8.03;2.80;;;24.10;99.90;;;;;;5002612;28;20463;-49
2022/10/17 12:53:59;;;;;;;14.07;2.50;;;24.30;99.90;;;;;;5003013;28;20456;-50
2022/10/17 12:56:36;;;;;;;3.13;2.63;;;24.30;99.90;;;;;;5009182;28;20630;-49
2022/10/17 12:59:09;;;;;;;7.23;2.23;;;24.50;99.90;;;;;;5005342;28;20465;-49
2022/10/17 13:01:38;;;;;;;8.50;2.40;;;24.60;99.90;;;;;;5007336;28;20459;-50